• Join FlightAware (Why Join?)
  • Login
  • US Flag 
03:42PM EDT


 

Airport Tracker/Info


-or-


 

Live Flight TrackerFlight Track Log ✈ SRY660 ✈ 16-Aug-2013 ✈ KIAG - KMDT

Flight Track Log - Related Links

Times and Time Zones

All times are in EDT time to prevent confusion due to time zone crossing. See the SRY660 flight status page for this flight to view local times or setup timezone preferences in your user account.

Time Position Orientation Groundspeed Altitude Reporting Facility
EDT Latitude Longitude Course Direction KTS MPH feet Rate Location/Type
10:27AM 43.1167 -78.9667 61° Northeast 136 157 1,200  Level Buffalo TRACON
10:29AM 43.1481 -78.8903 61° Northeast 107 123 4,900 1,800 Climbing Cleveland Center
10:30AM 43.1469 -78.8106 91° East 195 224 6,800 1,680 Climbing Cleveland Center
10:31AM 43.1022 -78.7578 139° Southeast 188 216 8,300 1,800 Climbing Cleveland Center
10:32AM 43.0478 -78.7281 158° South 195 224 10,400 1,740 Climbing Cleveland Center
10:33AM 42.9928 -78.6900 153° Southeast 214 246 11,800 1,260 Climbing Cleveland Center
10:35AM 42.8811 -78.6056 151° Southeast 220 253 14,200 1,200 Climbing Cleveland Center
10:36AM 42.8239 -78.5619 151° Southeast 226 260 15,400 1,200 Climbing Cleveland Center
10:37AM 42.7669 -78.5158 149° Southeast 226 260 16,600 1,200 Climbing Cleveland Center
10:38AM 42.7078 -78.4697 150° Southeast 231 266 17,800 960 Climbing Cleveland Center
10:39AM 42.6483 -78.4236 150° Southeast 236 272 18,600 420 Climbing Cleveland Center
10:41AM 42.5114 -78.3356 155° Southeast 267 307 19,100 120 Climbing Cleveland Center
10:42AM 42.4356 -78.2931 158° South 283 326 19,100  Level Cleveland Center
10:43AM 42.3594 -78.2481 156° South 294 338 19,100  Level Cleveland Center
10:44AM 42.2833 -78.2003 155° Southeast 299 344 19,100  Level Cleveland Center
10:45AM 42.2053 -78.1556 157° South 299 344 19,100  Level Cleveland Center
10:46AM 42.1272 -78.1111 157° South 299 344 19,100  Level Cleveland Center
10:47AM 42.0514 -78.0664 156° South 299 344 19,100  Level Cleveland Center
10:48AM 41.9711 -78.0219 158° South 299 344 19,100  Level Cleveland Center
10:49AM 41.8928 -77.9750 156° South 299 344 19,100  Level Cleveland Center
10:50AM 41.8147 -77.9281 156° South 299 344 19,100 -120 Level Cleveland Center
10:51AM 41.7386 -77.8839 157° South 299 344 18,900 -720 Descending Cleveland Center
10:52AM 41.6347 -77.8236 157° South 302 348 17,500 -840 Descending New York Center
10:53AM 41.5542 -77.7764 156° South 316 364 17,000 -300 Descending New York Center
10:54AM 41.4736 -77.7292 156° South 321 369 17,000  Level New York Center
10:55AM 41.3931 -77.6850 158° South 321 369 17,000 -120 Level New York Center
10:56AM 41.3144 -77.6381 156° South 321 369 16,800 -720 Descending New York Center
10:57AM 41.2317 -77.5939 158° South 321 369 15,600 -1,440 Descending New York Center
10:58AM 41.1508 -77.5472 157° South 326 375 14,000 -3,300 Descending New York Center
10:59AM 41.0700 -77.5033 158° South 320 368 9,000 -1,620 Descending New York Center
11:00AM 40.9953 -77.4603 156° South 314 361 10,800 60 Climbing New York Center
11:01AM 40.9247 -77.4175 155° Southeast 303 349 9,200 -1,560 Descending New York Center
11:02AM 40.8542 -77.3778 157° South 291 335 7,700 -1,140 Descending New York Center
11:03AM 40.7875 -77.3383 156° South 278 320 7,000 -360 Descending New York Center
11:04AM 40.7350 -77.3086 157° South 253 291 7,000  Level New York Center
11:05AM 40.6722 -77.2753 158° South 247 284 7,000  Level New York Center
11:06AM 40.6031 -77.3181 205° Southwest 242 278 7,000  Level New York Center
11:07AM 40.5897 -77.4069 259° West 233 268 7,000  Level New York Center
11:08AM 40.5564 -77.4803 239° Southwest 241 277 7,000  Level New York Center
11:09AM 40.5003 -77.4419 153° Southeast 170 196 7,000  Level New York Center
11:10AM 40.4614 -77.3564 121° Southeast 209 241 7,000  Level New York Center
11:11AM 40.4242 -77.2736 121° Southeast 250 288 7,000  Level New York Center
11:12AM 40.3869 -77.1911 121° Southeast 272 313 7,000  Level New York Center
11:13AM 40.3586 -77.1014 112° Southeast 272 313 7,000 -180 Level New York Center
11:14AM 40.3342 -77.0092 109° East 260 299 6,700 -660 Descending New York Center
11:15AM 40.3114 -76.9283 110° East 255 293 5,700 -900 Descending New York Center
11:16AM 40.2906 -76.8475 109° East 247 284 4,900 -900 Descending New York Center
11:17AM 40.2647 -76.7797 117° Southeast 206 237 4,000 -600 Descending New York Center
11:18AM 40.2428 -76.7236 117° Southeast 197 227 3,800 1,500 Descending New York Center
11:19AM 40.2189 -76.6589 116° Southeast 197 227 7,000 1,560 Climbing New York Center
11:20AM 40.1969 -76.5972 115° Southeast 197 227 7,000  Level New York Center
11:21AM 40.1728 -76.5328 116° Southeast 197 227 7,000  Level New York Center
11:22AM 40.1636 -76.5075 115° Southeast 197 227 7,000  Level New York Center